sensor_id;sensor_type;location;lat;lon;timestamp;temperature;humidity
15777;DHT22;7989;51.198;6.676;2023-11-19T13:25:13;14.60;99.90
15777;DHT22;7989;51.198;6.676;2023-11-19T13:27:40;14.50;99.90
15777;DHT22;7989;51.198;6.676;2023-11-19T13:30:08;14.60;99.90
15777;DHT22;7989;51.198;6.676;2023-11-19T13:32:35;14.70;99.90
15777;DHT22;7989;51.198;6.676;2023-11-19T13:35:02;14.70;99.90
15777;DHT22;7989;51.198;6.676;2023-11-19T13:37:29;14.50;99.90
15777;DHT22;7989;51.198;6.676;2023-11-19T13:39:56;14.40;99.90
15777;DHT22;7989;51.198;6.676;2023-11-19T13:42:24;14.30;99.90
15777;DHT22;7989;51.198;6.676;2023-11-19T13:44:51;14.20;99.90
15777;DHT22;7989;51.198;6.676;2023-11-19T13:47:18;14.10;99.90
15777;DHT22;7989;51.198;6.676;2023-11-19T13:49:45;14.10;99.90
15777;DHT22;7989;51.198;6.676;2023-11-19T13:52:11;14.10;99.90
15777;DHT22;7989;51.198;6.676;2023-11-19T13:54:38;14.00;99.90
15777;DHT22;7989;51.198;6.676;2023-11-19T13:57:05;14.00;99.90
15777;DHT22;7989;51.198;6.676;2023-11-19T13:59:34;13.90;99.90
15777;DHT22;7989;51.198;6.676;2023-11-19T14:02:05;13.90;99.90
15777;DHT22;7989;51.198;6.676;2023-11-19T14:04:33;13.80;99.90
15777;DHT22;7989;51.198;6.676;2023-11-19T14:06:59;13.80;99.90
15777;DHT22;7989;51.198;6.676;2023-11-19T14:09:26;13.80;99.90
15777;DHT22;7989;51.198;6.676;2023-11-19T14:11:54;13.80;99.90
15777;DHT22;7989;51.198;6.676;2023-11-19T14:14:21;13.70;99.90
15777;DHT22;7989;51.198;6.676;2023-11-19T14:16:49;13.60;99.90
15777;DHT22;7989;51.198;6.676;2023-11-19T14:19:16;13.50;99.90
15777;DHT22;7989;51.198;6.676;2023-11-19T14:21:43;13.40;99.90
15777;DHT22;7989;51.198;6.676;2023-11-19T14:24:10;13.40;99.90
15777;DHT22;7989;51.198;6.676;2023-11-19T14:26:37;13.30;99.90
15777;DHT22;7989;51.198;6.676;2023-11-19T14:29:04;13.30;99.90
15777;DHT22;7989;51.198;6.676;2023-11-19T14:31:31;13.20;99.90
15777;DHT22;7989;51.198;6.676;2023-11-19T14:33:59;13.10;99.90
15777;DHT22;7989;51.198;6.676;2023-11-19T14:36:26;13.10;99.90
15777;DHT22;7989;51.198;6.676;2023-11-19T14:38:53;13.00;99.90
15777;DHT22;7989;51.198;6.676;2023-11-19T14:41:20;13.00;99.90
15777;DHT22;7989;51.198;6.676;2023-11-19T14:43:47;13.00;99.90
15777;DHT22;7989;51.198;6.676;2023-11-19T14:46:14;12.90;99.90
15777;DHT22;7989;51.198;6.676;2023-11-19T14:48:41;13.00;99.90
15777;DHT22;7989;51.198;6.676;2023-11-19T14:51:09;12.90;99.90
15777;DHT22;7989;51.198;6.676;2023-11-19T14:53:36;12.80;99.90
15777;DHT22;7989;51.198;6.676;2023-11-19T14:56:03;12.70;99.90
15777;DHT22;7989;51.198;6.676;2023-11-19T14:58:30;12.60;99.90
15777;DHT22;7989;51.198;6.676;2023-11-19T15:00:57;12.70;99.90
15777;DHT22;7989;51.198;6.676;2023-11-19T15:03:24;12.70;99.90
15777;DHT22;7989;51.198;6.676;2023-11-19T15:05:51;12.70;99.90
15777;DHT22;7989;51.198;6.676;2023-11-19T15:08:19;12.70;99.90
15777;DHT22;7989;51.198;6.676;2023-11-19T15:10:46;12.70;99.90
15777;DHT22;7989;51.198;6.676;2023-11-19T15:13:13;12.70;99.90
15777;DHT22;7989;51.198;6.676;2023-11-19T15:15:40;12.60;99.90
15777;DHT22;7989;51.198;6.676;2023-11-19T15:18:07;12.50;99.90
15777;DHT22;7989;51.198;6.676;2023-11-19T15:20:35;12.50;99.90
15777;DHT22;7989;51.198;6.676;2023-11-19T15:23:02;12.40;99.90
15777;DHT22;7989;51.198;6.676;2023-11-19T15:25:30;12.40;99.90
15777;DHT22;7989;51.198;6.676;2023-11-19T15:27:57;12.50;99.90
15777;DHT22;7989;51.198;6.676;2023-11-19T15:30:24;12.40;99.90
15777;DHT22;7989;51.198;6.676;2023-11-19T15:32:51;12.40;99.90
15777;DHT22;7989;51.198;6.676;2023-11-19T15:35:18;12.40;99.90
15777;DHT22;7989;51.198;6.676;2023-11-19T15:37:45;12.40;99.90
15777;DHT22;7989;51.198;6.676;2023-11-19T15:40:12;12.40;99.90
15777;DHT22;7989;51.198;6.676;2023-11-19T15:42:41;12.40;99.90
15777;DHT22;7989;51.198;6.676;2023-11-19T15:45:09;12.40;99.90
15777;DHT22;7989;51.198;6.676;2023-11-19T15:47:37;12.40;99.90
15777;DHT22;7989;51.198;6.676;2023-11-19T15:50:05;12.30;99.90
15777;DHT22;7989;51.198;6.676;2023-11-19T15:52:32;12.30;99.90
15777;DHT22;7989;51.198;6.676;2023-11-19T15:54:59;12.30;99.90
15777;DHT22;7989;51.198;6.676;2023-11-19T15:57:26;12.30;99.90
15777;DHT22;7989;51.198;6.676;2023-11-19T15:59:54;12.30;99.90
15777;DHT22;7989;51.198;6.676;2023-11-19T16:02:21;12.30;99.90
15777;DHT22;7989;51.198;6.676;2023-11-19T16:04:48;12.30;99.90
15777;DHT22;7989;51.198;6.676;2023-11-19T16:07:15;12.40;99.90
15777;DHT22;7989;51.198;6.676;2023-11-19T16:09:43;12.30;99.90
15777;DHT22;7989;51.198;6.676;2023-11-19T16:12:09;12.40;99.90
15777;DHT22;7989;51.198;6.676;2023-11-19T16:14:37;12.30;99.90
15777;DHT22;7989;51.198;6.676;2023-11-19T16:17:05;12.30;99.90
15777;DHT22;7989;51.198;6.676;2023-11-19T16:19:32;12.30;99.90
15777;DHT22;7989;51.198;6.676;2023-11-19T16:22:00;12.20;99.90
15777;DHT22;7989;51.198;6.676;2023-11-19T16:24:38;12.20;99.90
15777;DHT22;7989;51.198;6.676;2023-11-19T16:27:05;12.20;99.90
15777;DHT22;7989;51.198;6.676;2023-11-19T16:29:31;12.20;99.90
15777;DHT22;7989;51.198;6.676;2023-11-19T16:31:58;12.20;99.90
15777;DHT22;7989;51.198;6.676;2023-11-19T16:34:28;12.10;99.90
15777;DHT22;7989;51.198;6.676;2023-11-19T16:36:55;12.20;99.90
15777;DHT22;7989;51.198;6.676;2023-11-19T16:39:22;12.20;99.90
15777;DHT22;7989;51.198;6.676;2023-11-19T16:41:49;12.20;99.90
15777;DHT22;7989;51.198;6.676;2023-11-19T16:44:19;12.30;99.90
15777;DHT22;7989;51.198;6.676;2023-11-19T16:46:46;12.30;99.90
15777;DHT22;7989;51.198;6.676;2023-11-19T16:49:15;12.30;99.90
15777;DHT22;7989;51.198;6.676;2023-11-19T16:51:46;12.30;99.90
15777;DHT22;7989;51.198;6.676;2023-11-19T16:54:17;12.40;99.90
15777;DHT22;7989;51.198;6.676;2023-11-19T16:56:44;12.40;99.90
15777;DHT22;7989;51.198;6.676;2023-11-19T16:59:11;12.40;99.90
15777;DHT22;7989;51.198;6.676;2023-11-19T17:01:43;12.40;99.90
15777;DHT22;7989;51.198;6.676;2023-11-19T17:04:13;12.40;99.90
15777;DHT22;7989;51.198;6.676;2023-11-19T17:06:42;12.40;99.90
15777;DHT22;7989;51.198;6.676;2023-11-19T17:09:11;12.40;99.90
15777;DHT22;7989;51.198;6.676;2023-11-19T17:11:38;12.30;99.90
15777;DHT22;7989;51.198;6.676;2023-11-19T17:14:08;12.40;99.90
15777;DHT22;7989;51.198;6.676;2023-11-19T17:16:37;12.30;99.90
15777;DHT22;7989;51.198;6.676;2023-11-19T17:19:05;12.30;99.90
15777;DHT22;7989;51.198;6.676;2023-11-19T17:21:32;12.30;99.90
15777;DHT22;7989;51.198;6.676;2023-11-19T17:24:00;12.30;99.90
15777;DHT22;7989;51.198;6.676;2023-11-19T17:26:29;12.30;99.90
15777;DHT22;7989;51.198;6.676;2023-11-19T17:28:56;12.30;99.90
15777;DHT22;7989;51.198;6.676;2023-11-19T17:31:23;12.40;99.90
15777;DHT22;7989;51.198;6.676;2023-11-19T17:33:50;12.40;99.90
15777;DHT22;7989;51.198;6.676;2023-11-19T17:36:17;12.40;99.90
15777;DHT22;7989;51.198;6.676;2023-11-19T17:38:44;12.40;99.90
15777;DHT22;7989;51.198;6.676;2023-11-19T17:41:11;12.50;99.90
15777;DHT22;7989;51.198;6.676;2023-11-19T17:43:39;12.40;99.90
15777;DHT22;7989;51.198;6.676;2023-11-19T17:46:07;12.50;99.90
15777;DHT22;7989;51.198;6.676;2023-11-19T17:48:34;12.50;99.90
15777;DHT22;7989;51.198;6.676;2023-11-19T17:51:01;12.50;99.90
15777;DHT22;7989;51.198;6.676;2023-11-19T17:53:30;12.50;99.90
15777;DHT22;7989;51.198;6.676;2023-11-19T17:55:57;12.50;99.90
15777;DHT22;7989;51.198;6.676;2023-11-19T17:58:24;12.60;99.90
15777;DHT22;7989;51.198;6.676;2023-11-19T18:00:52;12.60;99.90
15777;DHT22;7989;51.198;6.676;2023-11-19T18:03:22;12.60;99.90
15777;DHT22;7989;51.198;6.676;2023-11-19T18:05:50;12.60;99.90
15777;DHT22;7989;51.198;6.676;2023-11-19T18:08:17;12.60;99.90
15777;DHT22;7989;51.198;6.676;2023-11-19T18:10:47;12.60;99.90
15777;DHT22;7989;51.198;6.676;2023-11-19T18:13:14;12.60;99.90
15777;DHT22;7989;51.198;6.676;2023-11-19T18:15:41;12.60;99.90
15777;DHT22;7989;51.198;6.676;2023-11-19T18:18:10;12.60;99.90
15777;DHT22;7989;51.198;6.676;2023-11-19T18:20:38;12.60;99.90
15777;DHT22;7989;51.198;6.676;2023-11-19T18:23:05;12.60;99.90
15777;DHT22;7989;51.198;6.676;2023-11-19T18:25:32;12.60;99.90
15777;DHT22;7989;51.198;6.676;2023-11-19T18:27:58;12.60;99.90
15777;DHT22;7989;51.198;6.676;2023-11-19T18:30:26;12.50;99.90
15777;DHT22;7989;51.198;6.676;2023-11-19T18:32:53;12.40;99.90
15777;DHT22;7989;51.198;6.676;2023-11-19T18:35:21;12.30;99.90
15777;DHT22;7989;51.198;6.676;2023-11-19T18:37:49;12.20;99.90
15777;DHT22;7989;51.198;6.676;2023-11-19T18:40:18;12.10;99.90
15777;DHT22;7989;51.198;6.676;2023-11-19T18:42:47;12.00;99.90
15777;DHT22;7989;51.198;6.676;2023-11-19T18:45:14;12.00;99.90
15777;DHT22;7989;51.198;6.676;2023-11-19T18:47:43;12.00;99.90
15777;DHT22;7989;51.198;6.676;2023-11-19T18:50:10;11.90;99.90
15777;DHT22;7989;51.198;6.676;2023-11-19T18:52:38;11.90;99.90
15777;DHT22;7989;51.198;6.676;2023-11-19T18:55:07;11.90;99.90
15777;DHT22;7989;51.198;6.676;2023-11-19T18:57:34;11.90;99.90
15777;DHT22;7989;51.198;6.676;2023-11-19T19:00:01;11.90;99.90
15777;DHT22;7989;51.198;6.676;2023-11-19T19:02:32;11.80;99.90
15777;DHT22;7989;51.198;6.676;2023-11-19T19:04:59;11.70;99.90
15777;DHT22;7989;51.198;6.676;2023-11-19T19:07:26;11.60;99.90
15777;DHT22;7989;51.198;6.676;2023-11-19T19:09:54;11.60;99.90
15777;DHT22;7989;51.198;6.676;2023-11-19T19:12:22;11.50;99.90
15777;DHT22;7989;51.198;6.676;2023-11-19T19:14:49;11.50;99.90
15777;DHT22;7989;51.198;6.676;2023-11-19T19:17:17;11.50;99.90
15777;DHT22;7989;51.198;6.676;2023-11-19T19:19:44;11.50;99.90
15777;DHT22;7989;51.198;6.676;2023-11-19T19:22:11;11.50;99.90
15777;DHT22;7989;51.198;6.676;2023-11-19T19:24:38;11.50;99.90
15777;DHT22;7989;51.198;6.676;2023-11-19T19:27:06;11.40;99.90
15777;DHT22;7989;51.198;6.676;2023-11-19T19:29:36;11.40;99.90
15777;DHT22;7989;51.198;6.676;2023-11-19T19:32:04;11.40;99.90
15777;DHT22;7989;51.198;6.676;2023-11-19T19:34:31;11.40;99.90
15777;DHT22;7989;51.198;6.676;2023-11-19T19:36:58;11.40;99.90
15777;DHT22;7989;51.198;6.676;2023-11-19T19:39:25;11.40;99.90
15777;DHT22;7989;51.198;6.676;2023-11-19T19:41:53;11.30;99.90
15777;DHT22;7989;51.198;6.676;2023-11-19T19:44:22;11.30;99.90
15777;DHT22;7989;51.198;6.676;2023-11-19T19:46:49;11.30;99.90
15777;DHT22;7989;51.198;6.676;2023-11-19T19:49:17;11.20;99.90
15777;DHT22;7989;51.198;6.676;2023-11-19T19:51:44;11.20;99.90
15777;DHT22;7989;51.198;6.676;2023-11-19T19:54:14;11.20;99.90
15777;DHT22;7989;51.198;6.676;2023-11-19T19:56:41;11.20;99.90
15777;DHT22;7989;51.198;6.676;2023-11-19T19:59:08;11.20;99.90
15777;DHT22;7989;51.198;6.676;2023-11-19T20:01:36;11.20;99.90
15777;DHT22;7989;51.198;6.676;2023-11-19T20:04:04;11.20;99.90
15777;DHT22;7989;51.198;6.676;2023-11-19T20:06:36;11.20;99.90
15777;DHT22;7989;51.198;6.676;2023-11-19T20:09:04;11.20;99.90
15777;DHT22;7989;51.198;6.676;2023-11-19T20:11:32;11.20;99.90
15777;DHT22;7989;51.198;6.676;2023-11-19T20:13:59;11.10;99.90
15777;DHT22;7989;51.198;6.676;2023-11-19T20:16:26;11.20;99.90
15777;DHT22;7989;51.198;6.676;2023-11-19T20:18:55;11.10;99.90
15777;DHT22;7989;51.198;6.676;2023-11-19T20:21:22;11.20;99.90
15777;DHT22;7989;51.198;6.676;2023-11-19T20:23:50;11.10;99.90
15777;DHT22;7989;51.198;6.676;2023-11-19T20:26:17;11.10;99.90
15777;DHT22;7989;51.198;6.676;2023-11-19T20:28:44;11.10;99.90
15777;DHT22;7989;51.198;6.676;2023-11-19T20:31:11;11.20;99.90
15777;DHT22;7989;51.198;6.676;2023-11-19T20:33:38;11.10;99.90
15777;DHT22;7989;51.198;6.676;2023-11-19T20:36:06;11.10;99.90
15777;DHT22;7989;51.198;6.676;2023-11-19T20:38:33;11.10;99.90
15777;DHT22;7989;51.198;6.676;2023-11-19T20:41:02;11.20;99.90
15777;DHT22;7989;51.198;6.676;2023-11-19T20:43:29;11.20;99.90
15777;DHT22;7989;51.198;6.676;2023-11-19T20:45:56;11.20;99.90
15777;DHT22;7989;51.198;6.676;2023-11-19T20:48:25;11.20;99.90
15777;DHT22;7989;51.198;6.676;2023-11-19T20:50:51;11.30;99.90
15777;DHT22;7989;51.198;6.676;2023-11-19T20:53:19;11.30;99.90
15777;DHT22;7989;51.198;6.676;2023-11-19T20:55:47;11.30;99.90
15777;DHT22;7989;51.198;6.676;2023-11-19T20:58:14;11.30;99.90
15777;DHT22;7989;51.198;6.676;2023-11-19T21:00:41;11.30;99.90
15777;DHT22;7989;51.198;6.676;2023-11-19T21:03:11;11.30;99.90
15777;DHT22;7989;51.198;6.676;2023-11-19T21:05:39;11.30;99.90
15777;DHT22;7989;51.198;6.676;2023-11-19T21:08:06;11.30;99.90
15777;DHT22;7989;51.198;6.676;2023-11-19T21:10:34;11.30;99.90
15777;DHT22;7989;51.198;6.676;2023-11-19T21:13:01;11.30;99.90
15777;DHT22;7989;51.198;6.676;2023-11-19T21:15:28;11.30;99.90
15777;DHT22;7989;51.198;6.676;2023-11-19T21:17:55;11.30;99.90
15777;DHT22;7989;51.198;6.676;2023-11-19T21:20:22;11.30;99.90
15777;DHT22;7989;51.198;6.676;2023-11-19T21:22:51;11.40;99.90
15777;DHT22;7989;51.198;6.676;2023-11-19T21:25:18;11.40;99.90
15777;DHT22;7989;51.198;6.676;2023-11-19T21:27:46;11.40;99.90
15777;DHT22;7989;51.198;6.676;2023-11-19T21:30:15;11.40;99.90
15777;DHT22;7989;51.198;6.676;2023-11-19T21:32:43;11.40;99.90
15777;DHT22;7989;51.198;6.676;2023-11-19T21:35:10;11.30;99.90
15777;DHT22;7989;51.198;6.676;2023-11-19T21:37:37;11.40;99.90
15777;DHT22;7989;51.198;6.676;2023-11-19T21:40:05;11.30;99.90
15777;DHT22;7989;51.198;6.676;2023-11-19T21:42:33;11.30;99.90
15777;DHT22;7989;51.198;6.676;2023-11-19T21:45:01;11.40;99.90
15777;DHT22;7989;51.198;6.676;2023-11-19T21:47:28;11.30;99.90
15777;DHT22;7989;51.198;6.676;2023-11-19T21:49:55;11.30;99.90
15777;DHT22;7989;51.198;6.676;2023-11-19T21:52:23;11.30;99.90
15777;DHT22;7989;51.198;6.676;2023-11-19T21:54:51;11.30;99.90
15777;DHT22;7989;51.198;6.676;2023-11-19T21:57:18;11.30;99.90
15777;DHT22;7989;51.198;6.676;2023-11-19T21:59:47;11.30;99.90
15777;DHT22;7989;51.198;6.676;2023-11-19T22:02:16;11.40;99.90
15777;DHT22;7989;51.198;6.676;2023-11-19T22:04:43;11.30;99.90
15777;DHT22;7989;51.198;6.676;2023-11-19T22:07:10;11.40;99.90
15777;DHT22;7989;51.198;6.676;2023-11-19T22:09:37;11.40;99.90
15777;DHT22;7989;51.198;6.676;2023-11-19T22:12:05;11.40;99.90
15777;DHT22;7989;51.198;6.676;2023-11-19T22:14:32;11.40;99.90
15777;DHT22;7989;51.198;6.676;2023-11-19T22:17:00;11.40;99.90
15777;DHT22;7989;51.198;6.676;2023-11-19T22:19:30;11.40;99.90
15777;DHT22;7989;51.198;6.676;2023-11-19T22:21:57;11.50;99.90
15777;DHT22;7989;51.198;6.676;2023-11-19T22:24:24;11.50;99.90
15777;DHT22;7989;51.198;6.676;2023-11-19T22:26:51;11.50;99.90
15777;DHT22;7989;51.198;6.676;2023-11-19T22:29:18;11.50;99.90
15777;DHT22;7989;51.198;6.676;2023-11-19T22:31:45;11.50;99.90
15777;DHT22;7989;51.198;6.676;2023-11-19T22:34:12;11.60;99.90
15777;DHT22;7989;51.198;6.676;2023-11-19T22:36:40;11.60;99.90
15777;DHT22;7989;51.198;6.676;2023-11-19T22:39:08;11.60;99.90
15777;DHT22;7989;51.198;6.676;2023-11-19T22:41:35;11.60;99.90
15777;DHT22;7989;51.198;6.676;2023-11-19T22:44:02;11.60;99.90
15777;DHT22;7989;51.198;6.676;2023-11-19T22:46:29;11.60;99.90
15777;DHT22;7989;51.198;6.676;2023-11-19T22:48:56;11.60;99.90
15777;DHT22;7989;51.198;6.676;2023-11-19T22:51:23;11.50;99.90
15777;DHT22;7989;51.198;6.676;2023-11-19T22:53:51;11.50;99.90
15777;DHT22;7989;51.198;6.676;2023-11-19T22:56:18;11.50;99.90
15777;DHT22;7989;51.198;6.676;2023-11-19T22:58:45;11.50;99.90
15777;DHT22;7989;51.198;6.676;2023-11-19T23:01:15;11.50;99.90
15777;DHT22;7989;51.198;6.676;2023-11-19T23:03:42;11.50;99.90
15777;DHT22;7989;51.198;6.676;2023-11-19T23:06:10;11.50;99.90
15777;DHT22;7989;51.198;6.676;2023-11-19T23:08:37;11.50;99.90
15777;DHT22;7989;51.198;6.676;2023-11-19T23:11:06;11.50;99.90
15777;DHT22;7989;51.198;6.676;2023-11-19T23:13:33;11.50;99.90
15777;DHT22;7989;51.198;6.676;2023-11-19T23:16:00;11.60;99.90
15777;DHT22;7989;51.198;6.676;2023-11-19T23:18:27;11.60;99.90
15777;DHT22;7989;51.198;6.676;2023-11-19T23:20:54;11.60;99.90
15777;DHT22;7989;51.198;6.676;2023-11-19T23:23:21;11.60;99.90
15777;DHT22;7989;51.198;6.676;2023-11-19T23:25:48;11.70;99.90
15777;DHT22;7989;51.198;6.676;2023-11-19T23:28:17;11.70;99.90
15777;DHT22;7989;51.198;6.676;2023-11-19T23:30:44;11.70;99.90
15777;DHT22;7989;51.198;6.676;2023-11-19T23:33:11;11.70;99.90
15777;DHT22;7989;51.198;6.676;2023-11-19T23:35:38;11.60;99.90
15777;DHT22;7989;51.198;6.676;2023-11-19T23:38:05;11.70;99.90
15777;DHT22;7989;51.198;6.676;2023-11-19T23:40:32;11.70;99.90
15777;DHT22;7989;51.198;6.676;2023-11-19T23:42:58;11.70;99.90
15777;DHT22;7989;51.198;6.676;2023-11-19T23:45:27;11.70;99.90
15777;DHT22;7989;51.198;6.676;2023-11-19T23:47:54;11.70;99.90
15777;DHT22;7989;51.198;6.676;2023-11-19T23:50:21;11.70;99.90
15777;DHT22;7989;51.198;6.676;2023-11-19T23:52:48;11.70;99.90
15777;DHT22;7989;51.198;6.676;2023-11-19T23:55:15;11.70;99.90
15777;DHT22;7989;51.198;6.676;2023-11-19T23:57:42;11.70;99.90
